KAL2042 ZMCK-RKSI
Flight info
| Callsign | KAL2042 |
|---|---|
| Flight time | 2h 35m |
| Altitude | 33000 |
| Route | MENUG2C MENUG Y345 POLHO W33 UKDUM DCT ANOBI DCT ISGAP W201 UNSEK A326 ALARA/K0857S0950 A326 DONVO G597 AGAVO/N0462F310 Y644 REBIT REBIT2H |
| Aircraft | B77W/H-SDE1E2E3FGHIJ2J3J4J5M1RWXY/LB1D1 |
Departure
| Time | 2026-05-06 10:23 |
|---|---|
| Airport | Ulaanbaatar Chinggis Khaan International Airport (ZMCK) |
Arrival
| Time | 2026-05-06 12:58 |
|---|---|
| Airport | Incheon International Airport (RKSI) |
| Time | Latitude | Longitude | Altitude | Speed | Heading |
|---|---|---|---|---|---|
| 2026-05-06 09:06 | 47.65037 | 106.82336 | 4506 ft | 0 kts | 14° |
| 2026-05-06 10:12 | 47.65027 | 106.82332 | 4508 ft | 4 kts | 14° |
| 2026-05-06 10:13 | 47.65001 | 106.82322 | 4506 ft | 4 kts | 14° |
| 2026-05-06 10:13 | 47.64975 | 106.82312 | 4506 ft | 4 kts | 14° |
| 2026-05-06 10:13 | 47.64950 | 106.82302 | 4506 ft | 3 kts | 15° |
| 2026-05-06 10:13 | 47.64927 | 106.82290 | 4507 ft | 4 kts | 38° |
| 2026-05-06 10:14 | 47.64915 | 106.82270 | 4506 ft | 4 kts | 77° |
| 2026-05-06 10:14 | 47.64915 | 106.82238 | 4505 ft | 4 kts | 107° |
| 2026-05-06 10:14 | 47.64923 | 106.82203 | 4504 ft | 1 kts | 104° |
| 2026-05-06 10:14 | 47.64923 | 106.82202 | 4504 ft | 0 kts | 104° |
| 2026-05-06 10:17 | 47.64922 | 106.82207 | 4504 ft | 2 kts | 104° |
| 2026-05-06 10:17 | 47.64915 | 106.82246 | 4508 ft | 6 kts | 104° |
| 2026-05-06 10:17 | 47.64901 | 106.82326 | 4510 ft | 9 kts | 104° |
| 2026-05-06 10:18 | 47.64886 | 106.82413 | 4507 ft | 9 kts | 104° |
| 2026-05-06 10:18 | 47.64871 | 106.82500 | 4508 ft | 9 kts | 104° |
| 2026-05-06 10:18 | 47.64835 | 106.82576 | 4509 ft | 11 kts | 141° |
| 2026-05-06 10:18 | 47.64765 | 106.82639 | 4507 ft | 12 kts | 129° |
| 2026-05-06 10:19 | 47.64731 | 106.82780 | 4503 ft | 18 kts | 104° |
| 2026-05-06 10:19 | 47.64696 | 106.82983 | 4497 ft | 22 kts | 104° |
| 2026-05-06 10:19 | 47.64658 | 106.83201 | 4498 ft | 22 kts | 105° |
| 2026-05-06 10:19 | 47.64618 | 106.83417 | 4500 ft | 22 kts | 105° |
| 2026-05-06 10:20 | 47.64579 | 106.83635 | 4501 ft | 22 kts | 104° |
| 2026-05-06 10:20 | 47.64541 | 106.83850 | 4499 ft | 22 kts | 104° |
| 2026-05-06 10:20 | 47.64506 | 106.84053 | 4500 ft | 17 kts | 104° |
| 2026-05-06 10:20 | 47.64477 | 106.84218 | 4500 ft | 13 kts | 104° |
| 2026-05-06 10:21 | 47.64430 | 106.84324 | 4500 ft | 13 kts | 152° |
| 2026-05-06 10:21 | 47.64347 | 106.84320 | 4499 ft | 11 kts | 194° |
| 2026-05-06 10:21 | 47.64299 | 106.84294 | 4498 ft | 5 kts | 221° |
| 2026-05-06 10:21 | 47.64296 | 106.84260 | 4500 ft | 3 kts | 273° |
| 2026-05-06 10:22 | 47.64298 | 106.84248 | 4500 ft | 0 kts | 279° |
| 2026-05-06 10:22 | 47.64344 | 106.83960 | 4496 ft | 65 kts | 284° |
| 2026-05-06 10:22 | 47.64523 | 106.82955 | 4502 ft | 135 kts | 284° |
| 2026-05-06 10:23 | 47.64799 | 106.81341 | 4578 ft | 179 kts | 284° |
| 2026-05-06 10:23 | 47.65104 | 106.79565 | 5239 ft | 182 kts | 287° |
| 2026-05-06 10:23 | 47.65438 | 106.77753 | 6081 ft | 184 kts | 289° |
| 2026-05-06 10:23 | 47.65760 | 106.75888 | 6646 ft | 190 kts | 288° |
| 2026-05-06 10:24 | 47.66109 | 106.73908 | 7076 ft | 208 kts | 288° |
| 2026-05-06 10:24 | 47.66473 | 106.71703 | 7358 ft | 233 kts | 279° |
| 2026-05-06 10:24 | 47.66196 | 106.69200 | 7725 ft | 262 kts | 246° |
| 2026-05-06 10:24 | 47.64998 | 106.67072 | 8460 ft | 279 kts | 217° |
| 2026-05-06 10:25 | 47.63182 | 106.65998 | 9373 ft | 286 kts | 188° |
| 2026-05-06 10:25 | 47.61195 | 106.66295 | 10256 ft | 293 kts | 159° |
| 2026-05-06 10:25 | 47.59452 | 106.67948 | 10886 ft | 307 kts | 137° |
| 2026-05-06 10:25 | 47.57911 | 106.70197 | 11400 ft | 326 kts | 134° |
| 2026-05-06 10:26 | 47.56252 | 106.72697 | 11662 ft | 356 kts | 134° |
| 2026-05-06 10:26 | 47.54415 | 106.75383 | 12077 ft | 380 kts | 135° |
| 2026-05-06 10:26 | 47.52481 | 106.78139 | 13002 ft | 391 kts | 136° |
| 2026-05-06 10:26 | 47.50481 | 106.80941 | 14060 ft | 398 kts | 137° |
| 2026-05-06 10:27 | 47.48445 | 106.83765 | 15064 ft | 403 kts | 137° |
| 2026-05-06 10:27 | 47.46409 | 106.86575 | 16098 ft | 407 kts | 137° |
| 2026-05-06 10:27 | 47.44399 | 106.89552 | 16954 ft | 411 kts | 128° |
| 2026-05-06 10:27 | 47.43035 | 106.93307 | 17781 ft | 420 kts | 106° |
| 2026-05-06 10:28 | 47.42489 | 106.97531 | 18634 ft | 421 kts | 96° |
| 2026-05-06 10:28 | 47.42095 | 107.01877 | 19352 ft | 430 kts | 96° |
| 2026-05-06 10:28 | 47.41829 | 107.04792 | 19909 ft | 434 kts | 96° |
| 2026-05-06 10:28 | 47.41275 | 107.10688 | 21050 ft | 440 kts | 97° |
| 2026-05-06 10:29 | 47.40836 | 107.15199 | 21873 ft | 446 kts | 97° |
| 2026-05-06 10:29 | 47.40531 | 107.18266 | 22403 ft | 450 kts | 97° |
| 2026-05-06 10:29 | 47.39911 | 107.24405 | 23416 ft | 460 kts | 97° |
| 2026-05-06 10:29 | 47.39594 | 107.27514 | 23889 ft | 464 kts | 97° |
| 2026-05-06 10:30 | 47.39107 | 107.32251 | 24524 ft | 469 kts | 97° |
| 2026-05-06 10:30 | 47.38611 | 107.37052 | 25162 ft | 474 kts | 97° |
| 2026-05-06 10:30 | 47.38110 | 107.41895 | 25769 ft | 480 kts | 98° |
| 2026-05-06 10:30 | 47.37600 | 107.46799 | 26333 ft | 486 kts | 98° |
| 2026-05-06 10:31 | 47.37082 | 107.51775 | 26915 ft | 492 kts | 98° |
| 2026-05-06 10:31 | 47.36557 | 107.56795 | 27497 ft | 497 kts | 98° |
| 2026-05-06 10:31 | 47.36068 | 107.61878 | 27988 ft | 500 kts | 93° |
| 2026-05-06 10:31 | 47.36234 | 107.67017 | 28347 ft | 505 kts | 75° |
| 2026-05-06 10:32 | 47.37348 | 107.71826 | 28864 ft | 501 kts | 64° |
| 2026-05-06 10:32 | 47.38539 | 107.76673 | 29232 ft | 508 kts | 75° |
| 2026-05-06 10:32 | 47.38774 | 107.81926 | 29800 ft | 516 kts | 96° |
| 2026-05-06 10:32 | 47.37883 | 107.87031 | 30498 ft | 514 kts | 115° |
| 2026-05-06 10:33 | 47.36096 | 107.91551 | 31074 ft | 507 kts | 127° |
| 2026-05-06 10:33 | 47.34093 | 107.95807 | 31453 ft | 512 kts | 127° |
| 2026-05-06 10:33 | 47.32084 | 108.00175 | 31926 ft | 515 kts | 126° |
| 2026-05-06 10:33 | 47.30101 | 108.04574 | 32503 ft | 515 kts | 126° |
| 2026-05-06 10:34 | 47.28136 | 108.08989 | 33090 ft | 515 kts | 126° |
| 2026-05-06 10:34 | 47.26169 | 108.13436 | 33223 ft | 522 kts | 125° |
| 2026-05-06 10:34 | 47.22216 | 108.22379 | 33205 ft | 518 kts | 126° |
| 2026-05-06 10:35 | 47.18281 | 108.31239 | 33204 ft | 517 kts | 126° |
| 2026-05-06 10:35 | 47.14349 | 108.40044 | 33210 ft | 518 kts | 126° |
| 2026-05-06 10:36 | 47.10377 | 108.48910 | 33209 ft | 520 kts | 126° |
| 2026-05-06 10:36 | 47.06383 | 108.57799 | 33217 ft | 522 kts | 127° |
| 2026-05-06 10:37 | 47.02363 | 108.66722 | 33211 ft | 524 kts | 127° |
| 2026-05-06 10:37 | 46.98355 | 108.75591 | 33216 ft | 526 kts | 127° |
| 2026-05-06 10:38 | 46.94300 | 108.84553 | 33215 ft | 527 kts | 127° |
| 2026-05-06 10:38 | 46.90230 | 108.93527 | 33212 ft | 528 kts | 127° |
| 2026-05-06 10:39 | 46.86178 | 109.02431 | 33218 ft | 528 kts | 127° |
| 2026-05-06 10:39 | 46.82090 | 109.11387 | 33215 ft | 529 kts | 128° |
| 2026-05-06 10:40 | 46.78007 | 109.20300 | 33214 ft | 529 kts | 128° |
| 2026-05-06 10:40 | 46.73918 | 109.29198 | 33209 ft | 530 kts | 128° |
| 2026-05-06 10:41 | 46.69803 | 109.38125 | 33220 ft | 530 kts | 128° |
| 2026-05-06 10:41 | 46.65668 | 109.47065 | 33219 ft | 531 kts | 129° |
| 2026-05-06 10:42 | 46.61557 | 109.55924 | 33302 ft | 531 kts | 129° |
| 2026-05-06 10:42 | 46.57406 | 109.64843 | 33316 ft | 533 kts | 129° |
| 2026-05-06 10:43 | 46.53220 | 109.73805 | 33320 ft | 535 kts | 129° |
| 2026-05-06 10:44 | 46.46939 | 109.87203 | 33321 ft | 538 kts | 129° |
| 2026-05-06 10:44 | 46.42711 | 109.96186 | 33314 ft | 539 kts | 129° |
| 2026-05-06 10:45 | 46.38489 | 110.05128 | 33310 ft | 539 kts | 129° |
| 2026-05-06 10:45 | 46.34247 | 110.14084 | 33305 ft | 539 kts | 129° |
| 2026-05-06 10:46 | 46.25994 | 110.31423 | 33303 ft | 538 kts | 130° |
| 2026-05-06 10:47 | 46.21755 | 110.40290 | 33305 ft | 538 kts | 130° |
| 2026-05-06 10:47 | 46.17493 | 110.49173 | 33298 ft | 538 kts | 130° |
| 2026-05-06 10:48 | 46.13250 | 110.57992 | 33298 ft | 537 kts | 130° |
| 2026-05-06 10:48 | 46.08971 | 110.66854 | 33289 ft | 537 kts | 130° |
| 2026-05-06 10:49 | 46.04691 | 110.75693 | 33287 ft | 537 kts | 131° |
| 2026-05-06 10:49 | 46.00440 | 110.84445 | 33289 ft | 536 kts | 131° |
| 2026-05-06 10:50 | 45.96153 | 110.93242 | 33288 ft | 536 kts | 131° |
| 2026-05-06 10:50 | 45.91858 | 111.02029 | 33277 ft | 535 kts | 131° |
| 2026-05-06 10:51 | 45.87573 | 111.10769 | 33280 ft | 534 kts | 131° |
| 2026-05-06 10:51 | 45.83311 | 111.19433 | 33278 ft | 534 kts | 131° |
| 2026-05-06 10:52 | 45.79021 | 111.28129 | 33276 ft | 533 kts | 131° |
| 2026-05-06 10:52 | 45.74721 | 111.36816 | 33276 ft | 533 kts | 131° |
| 2026-05-06 10:53 | 45.70447 | 111.45427 | 33272 ft | 533 kts | 131° |
| 2026-05-06 10:53 | 45.66135 | 111.54085 | 33269 ft | 533 kts | 132° |
| 2026-05-06 10:54 | 45.61825 | 111.62715 | 33281 ft | 533 kts | 132° |
| 2026-05-06 10:54 | 45.57532 | 111.71285 | 33268 ft | 533 kts | 132° |
| 2026-05-06 10:55 | 45.53199 | 111.79908 | 33271 ft | 533 kts | 132° |
| 2026-05-06 10:55 | 45.48868 | 111.88503 | 33261 ft | 533 kts | 132° |
| 2026-05-06 10:56 | 45.44557 | 111.97030 | 33258 ft | 532 kts | 132° |
| 2026-05-06 10:56 | 45.40227 | 112.05572 | 33258 ft | 531 kts | 132° |
| 2026-05-06 10:57 | 45.35891 | 112.14097 | 33264 ft | 531 kts | 132° |
| 2026-05-06 10:57 | 45.31570 | 112.22568 | 33261 ft | 530 kts | 133° |
| 2026-05-06 10:58 | 45.27233 | 112.31044 | 33265 ft | 530 kts | 133° |
| 2026-05-06 10:58 | 45.22888 | 112.39512 | 33257 ft | 529 kts | 133° |
| 2026-05-06 10:59 | 45.18548 | 112.47945 | 33273 ft | 529 kts | 133° |
| 2026-05-06 10:59 | 45.14222 | 112.56326 | 33251 ft | 529 kts | 133° |
| 2026-05-06 11:00 | 45.09872 | 112.64730 | 33265 ft | 528 kts | 133° |
| 2026-05-06 11:00 | 45.05519 | 112.73114 | 33260 ft | 528 kts | 133° |
| 2026-05-06 11:01 | 45.01183 | 112.81442 | 33253 ft | 528 kts | 133° |
| 2026-05-06 11:01 | 44.96821 | 112.89792 | 33237 ft | 527 kts | 133° |
| 2026-05-06 11:02 | 44.92455 | 112.98129 | 33254 ft | 528 kts | 133° |
| 2026-05-06 11:02 | 44.88114 | 113.06395 | 33275 ft | 527 kts | 133° |
| 2026-05-06 11:03 | 44.83737 | 113.14710 | 33251 ft | 527 kts | 133° |
| 2026-05-06 11:03 | 44.79422 | 113.23077 | 33263 ft | 529 kts | 128° |
| 2026-05-06 11:04 | 44.75955 | 113.32233 | 33252 ft | 536 kts | 117° |
| 2026-05-06 11:04 | 44.73071 | 113.41905 | 33263 ft | 535 kts | 116° |
| 2026-05-06 11:05 | 44.70189 | 113.51554 | 33247 ft | 534 kts | 117° |
| 2026-05-06 11:05 | 44.67265 | 113.61155 | 33258 ft | 533 kts | 117° |
| 2026-05-06 11:06 | 44.64340 | 113.70645 | 33245 ft | 532 kts | 117° |
| 2026-05-06 11:06 | 44.61390 | 113.80174 | 33259 ft | 531 kts | 117° |
| 2026-05-06 11:07 | 44.58433 | 113.89699 | 33237 ft | 531 kts | 117° |
| 2026-05-06 11:07 | 44.55473 | 113.99206 | 33250 ft | 531 kts | 117° |
| 2026-05-06 11:08 | 44.52521 | 114.08654 | 33240 ft | 531 kts | 117° |
| 2026-05-06 11:08 | 44.49559 | 114.18101 | 33248 ft | 531 kts | 117° |
| 2026-05-06 11:09 | 44.46573 | 114.27585 | 33240 ft | 532 kts | 117° |
| 2026-05-06 11:09 | 44.43571 | 114.37088 | 33251 ft | 533 kts | 117° |
| 2026-05-06 11:10 | 44.40579 | 114.46526 | 33234 ft | 533 kts | 117° |
| 2026-05-06 11:10 | 44.37559 | 114.56017 | 33242 ft | 533 kts | 117° |
| 2026-05-06 11:11 | 44.34546 | 114.65451 | 33233 ft | 534 kts | 117° |
| 2026-05-06 11:11 | 44.31512 | 114.74919 | 33244 ft | 534 kts | 117° |
| 2026-05-06 11:12 | 44.28464 | 114.84395 | 33238 ft | 534 kts | 117° |
| 2026-05-06 11:12 | 44.25432 | 114.93788 | 33246 ft | 534 kts | 117° |
| 2026-05-06 11:13 | 44.22371 | 115.03235 | 33232 ft | 534 kts | 117° |
| 2026-05-06 11:13 | 44.19302 | 115.12675 | 33245 ft | 533 kts | 117° |
| 2026-05-06 11:14 | 44.16230 | 115.22089 | 33223 ft | 533 kts | 117° |
| 2026-05-06 11:14 | 44.13172 | 115.31430 | 33228 ft | 533 kts | 117° |
| 2026-05-06 11:15 | 44.10077 | 115.40846 | 33214 ft | 533 kts | 117° |
| 2026-05-06 11:15 | 44.06997 | 115.50188 | 33218 ft | 533 kts | 117° |
| 2026-05-06 11:16 | 44.03892 | 115.59569 | 33196 ft | 533 kts | 118° |
| 2026-05-06 11:16 | 44.00787 | 115.68920 | 33205 ft | 533 kts | 118° |
| 2026-05-06 11:17 | 43.97692 | 115.78212 | 33182 ft | 533 kts | 118° |
| 2026-05-06 11:17 | 43.94561 | 115.87575 | 33186 ft | 531 kts | 119° |
| 2026-05-06 11:17 | 43.92662 | 115.91901 | 33170 ft | 520 kts | 135° |
| 2026-05-06 11:18 | 43.90094 | 115.95244 | 33186 ft | 506 kts | 152° |
| 2026-05-06 11:18 | 43.87083 | 115.97692 | 33182 ft | 498 kts | 164° |
| 2026-05-06 11:18 | 43.83829 | 115.99141 | 33164 ft | 481 kts | 178° |
| 2026-05-06 11:19 | 43.77204 | 116.00807 | 33175 ft | 486 kts | 178° |
| 2026-05-06 11:19 | 43.70573 | 116.02606 | 33170 ft | 488 kts | 177° |
| 2026-05-06 11:20 | 43.63911 | 116.04490 | 33163 ft | 487 kts | 177° |
| 2026-05-06 11:20 | 43.57322 | 116.06362 | 33167 ft | 484 kts | 177° |
| 2026-05-06 11:21 | 43.50722 | 116.08225 | 33156 ft | 481 kts | 177° |
| 2026-05-06 11:21 | 43.44170 | 116.10064 | 33159 ft | 480 kts | 177° |
| 2026-05-06 11:22 | 43.37663 | 116.11886 | 33142 ft | 479 kts | 177° |
| 2026-05-06 11:22 | 43.31158 | 116.13711 | 33345 ft | 467 kts | 180° |
| 2026-05-06 11:22 | 43.28019 | 116.14603 | 33216 ft | 451 kts | 180° |
| 2026-05-06 11:23 | 43.25022 | 116.15450 | 33144 ft | 438 kts | 181° |
| 2026-05-06 11:23 | 43.19015 | 116.17093 | 33155 ft | 447 kts | 181° |
| 2026-05-06 11:24 | 43.12859 | 116.18791 | 33123 ft | 451 kts | 181° |
| 2026-05-06 11:24 | 43.06720 | 116.20574 | 33123 ft | 450 kts | 180° |
| 2026-05-06 11:25 | 43.00651 | 116.22469 | 33116 ft | 448 kts | 180° |
| 2026-05-06 11:25 | 42.94580 | 116.24367 | 33112 ft | 446 kts | 180° |
| 2026-05-06 11:26 | 42.88515 | 116.26240 | 33109 ft | 445 kts | 180° |
| 2026-05-06 11:26 | 42.82457 | 116.28098 | 33105 ft | 445 kts | 180° |
| 2026-05-06 11:27 | 42.76410 | 116.29948 | 33099 ft | 445 kts | 180° |
| 2026-05-06 11:27 | 42.70408 | 116.31782 | 33094 ft | 444 kts | 180° |
| 2026-05-06 11:28 | 42.64358 | 116.33629 | 33095 ft | 443 kts | 180° |
| 2026-05-06 11:28 | 42.58374 | 116.35451 | 33092 ft | 442 kts | 180° |
| 2026-05-06 11:29 | 42.52373 | 116.37275 | 33085 ft | 441 kts | 180° |
| 2026-05-06 11:29 | 42.46379 | 116.39092 | 33082 ft | 440 kts | 180° |
| 2026-05-06 11:30 | 42.40451 | 116.40886 | 33080 ft | 439 kts | 180° |
| 2026-05-06 11:30 | 42.34484 | 116.42688 | 33082 ft | 438 kts | 180° |
| 2026-05-06 11:31 | 42.29529 | 116.44182 | 33086 ft | 438 kts | 180° |
| 2026-05-06 11:31 | 42.22599 | 116.46370 | 33068 ft | 447 kts | 173° |
| 2026-05-06 11:31 | 42.20646 | 116.47584 | 33083 ft | 468 kts | 161° |
| 2026-05-06 11:32 | 42.18014 | 116.50388 | 33083 ft | 497 kts | 146° |
| 2026-05-06 11:32 | 42.15935 | 116.54194 | 33071 ft | 524 kts | 127° |
| 2026-05-06 11:32 | 42.14360 | 116.58680 | 33095 ft | 530 kts | 123° |
| 2026-05-06 11:33 | 42.11462 | 116.67867 | 33069 ft | 533 kts | 122° |
| 2026-05-06 11:33 | 42.08530 | 116.76963 | 33069 ft | 531 kts | 123° |
| 2026-05-06 11:34 | 42.05474 | 116.86005 | 33059 ft | 529 kts | 124° |
| 2026-05-06 11:34 | 42.02383 | 116.95002 | 33051 ft | 528 kts | 124° |
| 2026-05-06 11:35 | 41.99314 | 117.03929 | 33031 ft | 527 kts | 124° |
| 2026-05-06 11:35 | 41.96239 | 117.12876 | 33044 ft | 526 kts | 124° |
| 2026-05-06 11:36 | 41.93163 | 117.21799 | 33043 ft | 525 kts | 123° |
| 2026-05-06 11:36 | 41.90092 | 117.30674 | 33035 ft | 527 kts | 124° |
| 2026-05-06 11:37 | 41.86986 | 117.39596 | 33024 ft | 528 kts | 123° |
| 2026-05-06 11:37 | 41.83861 | 117.48542 | 33019 ft | 529 kts | 123° |
| 2026-05-06 11:38 | 41.80733 | 117.57483 | 33015 ft | 528 kts | 123° |
| 2026-05-06 11:38 | 41.77618 | 117.66359 | 33004 ft | 526 kts | 123° |
| 2026-05-06 11:39 | 41.74497 | 117.75228 | 33015 ft | 525 kts | 123° |
| 2026-05-06 11:39 | 41.71390 | 117.84024 | 32999 ft | 524 kts | 123° |
| 2026-05-06 11:40 | 41.68262 | 117.92847 | 33022 ft | 523 kts | 124° |
| 2026-05-06 11:40 | 41.65148 | 118.01606 | 33023 ft | 524 kts | 123° |
| 2026-05-06 11:41 | 41.62006 | 118.10417 | 33014 ft | 524 kts | 123° |
| 2026-05-06 11:41 | 41.58859 | 118.19213 | 33027 ft | 524 kts | 124° |
| 2026-05-06 11:42 | 41.55720 | 118.27965 | 33032 ft | 525 kts | 123° |
| 2026-05-06 11:42 | 41.52553 | 118.36765 | 33033 ft | 522 kts | 125° |
| 2026-05-06 11:42 | 41.50676 | 118.40826 | 33044 ft | 506 kts | 139° |
| 2026-05-06 11:43 | 41.48315 | 118.44125 | 33047 ft | 491 kts | 150° |
| 2026-05-06 11:43 | 41.42652 | 118.48808 | 33048 ft | 469 kts | 169° |
| 2026-05-06 11:44 | 41.33596 | 118.53918 | 33053 ft | 471 kts | 168° |
| 2026-05-06 11:44 | 41.27570 | 118.57395 | 33047 ft | 472 kts | 168° |
| 2026-05-06 11:45 | 41.21597 | 118.60875 | 33044 ft | 470 kts | 168° |
| 2026-05-06 11:45 | 41.15616 | 118.64361 | 33052 ft | 468 kts | 168° |
| 2026-05-06 11:46 | 41.09646 | 118.67830 | 33054 ft | 467 kts | 168° |
| 2026-05-06 11:46 | 41.03694 | 118.71280 | 33058 ft | 467 kts | 168° |
| 2026-05-06 11:47 | 40.97768 | 118.74706 | 33054 ft | 467 kts | 168° |
| 2026-05-06 11:47 | 40.91795 | 118.78152 | 33078 ft | 469 kts | 168° |
| 2026-05-06 11:48 | 40.85791 | 118.81610 | 33074 ft | 470 kts | 168° |
| 2026-05-06 11:48 | 40.79820 | 118.85044 | 33066 ft | 471 kts | 168° |
| 2026-05-06 11:49 | 40.73784 | 118.88509 | 33058 ft | 473 kts | 168° |
| 2026-05-06 11:49 | 40.67771 | 118.91953 | 33053 ft | 473 kts | 168° |
| 2026-05-06 11:50 | 40.61725 | 118.95410 | 33052 ft | 473 kts | 168° |
| 2026-05-06 11:50 | 40.55684 | 118.98858 | 33058 ft | 473 kts | 168° |
| 2026-05-06 11:51 | 40.49637 | 119.02302 | 33050 ft | 473 kts | 168° |
| 2026-05-06 11:51 | 40.43622 | 119.05719 | 33045 ft | 473 kts | 168° |
| 2026-05-06 11:52 | 40.37566 | 119.09155 | 33047 ft | 474 kts | 168° |
| 2026-05-06 11:52 | 40.31534 | 119.12570 | 33041 ft | 474 kts | 168° |
| 2026-05-06 11:53 | 40.25465 | 119.16000 | 33038 ft | 474 kts | 168° |
| 2026-05-06 11:53 | 40.19549 | 119.20126 | 33028 ft | 492 kts | 156° |
| 2026-05-06 11:54 | 40.13961 | 119.25390 | 33025 ft | 496 kts | 155° |
| 2026-05-06 11:54 | 40.08417 | 119.30679 | 33029 ft | 495 kts | 155° |
| 2026-05-06 11:55 | 40.02816 | 119.35954 | 33027 ft | 495 kts | 155° |
| 2026-05-06 11:55 | 39.97250 | 119.41145 | 33022 ft | 494 kts | 155° |
| 2026-05-06 11:56 | 39.91649 | 119.46351 | 33022 ft | 494 kts | 155° |
| 2026-05-06 11:56 | 39.86051 | 119.51547 | 33023 ft | 493 kts | 155° |
| 2026-05-06 11:57 | 39.80479 | 119.56710 | 33022 ft | 493 kts | 155° |
| 2026-05-06 11:57 | 39.74919 | 119.61852 | 33021 ft | 492 kts | 155° |
| 2026-05-06 11:58 | 39.69336 | 119.67004 | 33025 ft | 492 kts | 155° |
| 2026-05-06 11:58 | 39.63752 | 119.72147 | 33026 ft | 491 kts | 155° |
| 2026-05-06 11:59 | 39.58168 | 119.77280 | 33032 ft | 490 kts | 155° |
| 2026-05-06 11:59 | 39.52630 | 119.82361 | 33034 ft | 490 kts | 155° |
| 2026-05-06 12:00 | 39.47044 | 119.87475 | 33025 ft | 489 kts | 155° |
| 2026-05-06 12:00 | 39.41477 | 119.92564 | 33018 ft | 489 kts | 155° |
| 2026-05-06 12:01 | 39.35915 | 119.97516 | 33009 ft | 482 kts | 160° |
| 2026-05-06 12:01 | 39.32978 | 119.99517 | 33009 ft | 471 kts | 166° |
| 2026-05-06 12:01 | 39.29974 | 120.01126 | 33014 ft | 464 kts | 171° |
| 2026-05-06 12:02 | 39.23848 | 120.03349 | 33015 ft | 455 kts | 177° |
| 2026-05-06 12:02 | 39.17703 | 120.05312 | 33016 ft | 458 kts | 177° |
| 2026-05-06 12:03 | 39.11489 | 120.07329 | 33010 ft | 460 kts | 176° |
| 2026-05-06 12:03 | 39.05296 | 120.09364 | 33017 ft | 462 kts | 176° |
| 2026-05-06 12:04 | 38.99033 | 120.11425 | 33006 ft | 464 kts | 176° |
| 2026-05-06 12:04 | 38.92804 | 120.13472 | 33007 ft | 464 kts | 176° |
| 2026-05-06 12:05 | 38.86521 | 120.15531 | 33003 ft | 464 kts | 176° |
| 2026-05-06 12:05 | 38.80285 | 120.17570 | 33004 ft | 464 kts | 176° |
| 2026-05-06 12:06 | 38.74006 | 120.19619 | 33004 ft | 464 kts | 176° |
| 2026-05-06 12:06 | 38.67843 | 120.22084 | 32992 ft | 481 kts | 161° |
| 2026-05-06 12:07 | 38.65026 | 120.24572 | 33007 ft | 501 kts | 147° |
| 2026-05-06 12:07 | 38.62568 | 120.27842 | 33018 ft | 515 kts | 137° |
| 2026-05-06 12:07 | 38.58955 | 120.35926 | 32993 ft | 539 kts | 110° |
| 2026-05-06 12:08 | 38.57595 | 120.45340 | 33003 ft | 542 kts | 102° |
| 2026-05-06 12:08 | 38.56210 | 120.54815 | 32988 ft | 539 kts | 106° |
| 2026-05-06 12:09 | 38.54648 | 120.64125 | 32989 ft | 538 kts | 106° |
| 2026-05-06 12:09 | 38.53116 | 120.73486 | 32990 ft | 538 kts | 105° |
| 2026-05-06 12:10 | 38.51612 | 120.82728 | 32900 ft | 526 kts | 105° |
| 2026-05-06 12:10 | 38.50133 | 120.91748 | 32766 ft | 511 kts | 106° |
| 2026-05-06 12:11 | 38.49401 | 120.96177 | 32656 ft | 505 kts | 106° |
| 2026-05-06 12:11 | 38.48672 | 121.00566 | 32455 ft | 502 kts | 106° |
| 2026-05-06 12:11 | 38.47953 | 121.04885 | 32163 ft | 502 kts | 106° |
| 2026-05-06 12:11 | 38.47224 | 121.09258 | 31811 ft | 503 kts | 105° |
| 2026-05-06 12:12 | 38.46495 | 121.13625 | 31473 ft | 503 kts | 105° |
| 2026-05-06 12:12 | 38.45794 | 121.17951 | 31137 ft | 504 kts | 104° |
| 2026-05-06 12:12 | 38.45125 | 121.22351 | 30818 ft | 504 kts | 104° |
| 2026-05-06 12:12 | 38.44460 | 121.26741 | 30493 ft | 503 kts | 104° |
| 2026-05-06 12:13 | 38.43755 | 121.31124 | 30164 ft | 503 kts | 104° |
| 2026-05-06 12:13 | 38.43024 | 121.35513 | 29809 ft | 503 kts | 104° |
| 2026-05-06 12:13 | 38.42304 | 121.39825 | 29427 ft | 503 kts | 104° |
| 2026-05-06 12:13 | 38.41579 | 121.44195 | 29069 ft | 502 kts | 104° |
| 2026-05-06 12:14 | 38.40138 | 121.52901 | 29066 ft | 503 kts | 104° |
| 2026-05-06 12:14 | 38.38678 | 121.61652 | 29061 ft | 504 kts | 104° |
| 2026-05-06 12:15 | 38.37225 | 121.70332 | 29058 ft | 503 kts | 104° |
| 2026-05-06 12:15 | 38.35757 | 121.79065 | 29056 ft | 502 kts | 104° |
| 2026-05-06 12:16 | 38.34296 | 121.87708 | 29072 ft | 501 kts | 105° |
| 2026-05-06 12:16 | 38.32818 | 121.96415 | 29078 ft | 501 kts | 105° |
| 2026-05-06 12:17 | 38.31337 | 122.05095 | 29076 ft | 500 kts | 105° |
| 2026-05-06 12:17 | 38.29863 | 122.13698 | 29077 ft | 500 kts | 105° |
| 2026-05-06 12:18 | 38.28380 | 122.22320 | 29079 ft | 499 kts | 105° |
| 2026-05-06 12:18 | 38.27001 | 122.30994 | 29084 ft | 500 kts | 102° |
| 2026-05-06 12:19 | 38.26008 | 122.38254 | 29081 ft | 497 kts | 104° |
| 2026-05-06 12:19 | 38.25067 | 122.42456 | 29085 ft | 492 kts | 116° |
| 2026-05-06 12:19 | 38.23551 | 122.46324 | 29089 ft | 485 kts | 127° |
| 2026-05-06 12:20 | 38.19334 | 122.52846 | 29093 ft | 473 kts | 142° |
| 2026-05-06 12:20 | 38.14641 | 122.58677 | 29088 ft | 475 kts | 141° |
| 2026-05-06 12:21 | 38.10032 | 122.64589 | 28991 ft | 463 kts | 141° |
| 2026-05-06 12:21 | 38.05582 | 122.70376 | 28738 ft | 452 kts | 141° |
| 2026-05-06 12:22 | 38.03425 | 122.73183 | 28508 ft | 450 kts | 141° |
| 2026-05-06 12:22 | 38.01233 | 122.76029 | 28171 ft | 450 kts | 141° |
| 2026-05-06 12:22 | 37.99039 | 122.78875 | 27821 ft | 451 kts | 141° |
| 2026-05-06 12:22 | 37.96839 | 122.81724 | 27496 ft | 451 kts | 141° |
| 2026-05-06 12:23 | 37.94640 | 122.84570 | 27165 ft | 451 kts | 141° |
| 2026-05-06 12:23 | 37.92471 | 122.87375 | 26835 ft | 451 kts | 141° |
| 2026-05-06 12:23 | 37.90272 | 122.90218 | 26503 ft | 451 kts | 141° |
| 2026-05-06 12:23 | 37.88072 | 122.93058 | 26167 ft | 451 kts | 141° |
| 2026-05-06 12:24 | 37.85869 | 122.95901 | 25881 ft | 450 kts | 141° |
| 2026-05-06 12:24 | 37.83709 | 122.98688 | 25842 ft | 447 kts | 141° |
| 2026-05-06 12:24 | 37.81532 | 123.01492 | 25818 ft | 448 kts | 141° |
| 2026-05-06 12:24 | 37.79331 | 123.04321 | 25829 ft | 452 kts | 141° |
| 2026-05-06 12:25 | 37.77113 | 123.07169 | 25827 ft | 454 kts | 141° |
| 2026-05-06 12:25 | 37.74901 | 123.10010 | 25823 ft | 454 kts | 141° |
| 2026-05-06 12:25 | 37.72686 | 123.12853 | 25820 ft | 454 kts | 141° |
| 2026-05-06 12:25 | 37.70488 | 123.15673 | 25827 ft | 454 kts | 141° |
| 2026-05-06 12:26 | 37.68267 | 123.18519 | 25822 ft | 454 kts | 141° |
| 2026-05-06 12:26 | 37.66047 | 123.21361 | 25828 ft | 454 kts | 141° |
| 2026-05-06 12:26 | 37.63831 | 123.24195 | 25835 ft | 454 kts | 141° |
| 2026-05-06 12:26 | 37.61617 | 123.27025 | 25823 ft | 454 kts | 141° |
| 2026-05-06 12:27 | 37.59394 | 123.29863 | 25843 ft | 454 kts | 141° |
| 2026-05-06 12:27 | 37.57184 | 123.32710 | 25842 ft | 455 kts | 139° |
| 2026-05-06 12:27 | 37.55130 | 123.35769 | 25842 ft | 459 kts | 133° |
| 2026-05-06 12:27 | 37.53201 | 123.39005 | 25850 ft | 460 kts | 132° |
| 2026-05-06 12:28 | 37.51324 | 123.42206 | 25849 ft | 460 kts | 131° |
| 2026-05-06 12:28 | 37.49420 | 123.45457 | 25851 ft | 460 kts | 132° |
| 2026-05-06 12:28 | 37.47515 | 123.48693 | 25848 ft | 460 kts | 132° |
| 2026-05-06 12:28 | 37.45596 | 123.51932 | 25851 ft | 460 kts | 132° |
| 2026-05-06 12:29 | 37.43679 | 123.55152 | 25856 ft | 460 kts | 132° |
| 2026-05-06 12:29 | 37.41753 | 123.58375 | 25881 ft | 459 kts | 132° |
| 2026-05-06 12:29 | 37.39833 | 123.61583 | 25926 ft | 458 kts | 132° |
| 2026-05-06 12:29 | 37.37939 | 123.64744 | 25956 ft | 457 kts | 133° |
| 2026-05-06 12:30 | 37.36021 | 123.67940 | 25958 ft | 457 kts | 133° |
| 2026-05-06 12:30 | 37.34098 | 123.71144 | 25961 ft | 457 kts | 133° |
| 2026-05-06 12:30 | 37.32169 | 123.74354 | 25969 ft | 458 kts | 133° |
| 2026-05-06 12:30 | 37.30273 | 123.77507 | 25971 ft | 458 kts | 133° |
| 2026-05-06 12:31 | 37.28349 | 123.80704 | 25968 ft | 458 kts | 133° |
| 2026-05-06 12:31 | 37.26425 | 123.83899 | 25969 ft | 458 kts | 133° |
| 2026-05-06 12:31 | 37.24500 | 123.87092 | 25969 ft | 458 kts | 133° |
| 2026-05-06 12:31 | 37.22578 | 123.90279 | 25971 ft | 458 kts | 133° |
| 2026-05-06 12:32 | 37.20651 | 123.93468 | 25976 ft | 457 kts | 133° |
| 2026-05-06 12:32 | 37.18802 | 123.96705 | 25966 ft | 459 kts | 125° |
| 2026-05-06 12:32 | 37.17489 | 124.00392 | 25977 ft | 467 kts | 110° |
| 2026-05-06 12:32 | 37.16825 | 124.04343 | 25982 ft | 472 kts | 97° |
| 2026-05-06 12:33 | 37.16827 | 124.08464 | 25990 ft | 472 kts | 87° |
| 2026-05-06 12:33 | 37.17062 | 124.12582 | 25988 ft | 473 kts | 86° |
| 2026-05-06 12:33 | 37.17297 | 124.16695 | 25982 ft | 474 kts | 87° |
| 2026-05-06 12:33 | 37.17481 | 124.20827 | 25985 ft | 474 kts | 88° |
| 2026-05-06 12:34 | 37.17630 | 124.24971 | 25983 ft | 475 kts | 89° |
| 2026-05-06 12:34 | 37.17736 | 124.29070 | 25987 ft | 475 kts | 90° |
| 2026-05-06 12:34 | 37.17820 | 124.33217 | 25987 ft | 475 kts | 90° |
| 2026-05-06 12:34 | 37.17906 | 124.37370 | 25986 ft | 476 kts | 90° |
| 2026-05-06 12:35 | 37.17998 | 124.41513 | 25991 ft | 476 kts | 89° |
| 2026-05-06 12:35 | 37.18094 | 124.45669 | 25990 ft | 476 kts | 89° |
| 2026-05-06 12:35 | 37.18189 | 124.49806 | 25989 ft | 475 kts | 89° |
| 2026-05-06 12:35 | 37.18283 | 124.53959 | 25993 ft | 475 kts | 89° |
| 2026-05-06 12:36 | 37.18375 | 124.58109 | 25996 ft | 475 kts | 90° |
| 2026-05-06 12:36 | 37.18465 | 124.62245 | 25996 ft | 473 kts | 90° |
| 2026-05-06 12:36 | 37.18553 | 124.66290 | 25792 ft | 468 kts | 90° |
| 2026-05-06 12:36 | 37.18639 | 124.70382 | 25358 ft | 467 kts | 90° |
| 2026-05-06 12:37 | 37.18723 | 124.74438 | 24923 ft | 463 kts | 90° |
| 2026-05-06 12:37 | 37.18806 | 124.78471 | 24478 ft | 460 kts | 90° |
| 2026-05-06 12:37 | 37.18887 | 124.82472 | 24006 ft | 458 kts | 90° |
| 2026-05-06 12:37 | 37.18967 | 124.86458 | 23542 ft | 456 kts | 90° |
| 2026-05-06 12:38 | 37.19048 | 124.90430 | 23011 ft | 453 kts | 90° |
| 2026-05-06 12:38 | 37.19127 | 124.94319 | 22542 ft | 449 kts | 90° |
| 2026-05-06 12:38 | 37.19206 | 124.98230 | 22086 ft | 445 kts | 89° |
| 2026-05-06 12:38 | 37.19282 | 125.02093 | 21637 ft | 441 kts | 89° |
| 2026-05-06 12:39 | 37.19356 | 125.05930 | 21182 ft | 437 kts | 89° |
| 2026-05-06 12:39 | 37.19429 | 125.09726 | 20742 ft | 433 kts | 89° |
| 2026-05-06 12:39 | 37.19499 | 125.13488 | 20302 ft | 429 kts | 89° |
| 2026-05-06 12:39 | 37.19567 | 125.17172 | 19877 ft | 426 kts | 89° |
| 2026-05-06 12:40 | 37.19634 | 125.20877 | 19444 ft | 423 kts | 89° |
| 2026-05-06 12:40 | 37.19699 | 125.24557 | 19010 ft | 420 kts | 89° |
| 2026-05-06 12:40 | 37.19763 | 125.28213 | 18566 ft | 417 kts | 89° |
| 2026-05-06 12:40 | 37.19825 | 125.31853 | 18084 ft | 415 kts | 89° |
| 2026-05-06 12:41 | 37.19886 | 125.35463 | 17614 ft | 411 kts | 89° |
| 2026-05-06 12:41 | 37.19945 | 125.38992 | 17181 ft | 407 kts | 89° |
| 2026-05-06 12:41 | 37.20003 | 125.42514 | 17007 ft | 396 kts | 89° |
| 2026-05-06 12:41 | 37.20058 | 125.45920 | 17010 ft | 387 kts | 88° |
| 2026-05-06 12:42 | 37.20450 | 125.49239 | 16777 ft | 384 kts | 69° |
| 2026-05-06 12:42 | 37.21664 | 125.52175 | 16342 ft | 377 kts | 55° |
| 2026-05-06 12:42 | 37.23077 | 125.54945 | 15914 ft | 376 kts | 55° |
| 2026-05-06 12:42 | 37.24459 | 125.57670 | 15520 ft | 373 kts | 55° |
| 2026-05-06 12:43 | 37.25675 | 125.60512 | 15033 ft | 371 kts | 69° |
| 2026-05-06 12:43 | 37.26321 | 125.63656 | 14587 ft | 372 kts | 78° |
| 2026-05-06 12:43 | 37.26752 | 125.66860 | 14234 ft | 369 kts | 81° |
| 2026-05-06 12:43 | 37.27126 | 125.70002 | 13891 ft | 366 kts | 81° |
| 2026-05-06 12:44 | 37.27491 | 125.73158 | 13481 ft | 364 kts | 81° |
| 2026-05-06 12:44 | 37.27852 | 125.76307 | 13074 ft | 362 kts | 81° |
| 2026-05-06 12:44 | 37.28205 | 125.79412 | 12661 ft | 359 kts | 81° |
| 2026-05-06 12:44 | 37.28560 | 125.82533 | 12181 ft | 360 kts | 81° |
| 2026-05-06 12:45 | 37.28915 | 125.85635 | 11773 ft | 358 kts | 81° |
| 2026-05-06 12:45 | 37.29270 | 125.88730 | 11380 ft | 356 kts | 81° |
| 2026-05-06 12:45 | 37.29963 | 125.94747 | 10967 ft | 339 kts | 81° |
| 2026-05-06 12:46 | 37.30245 | 125.97627 | 10822 ft | 325 kts | 89° |
| 2026-05-06 12:46 | 37.30068 | 126.00433 | 10605 ft | 318 kts | 99° |
| 2026-05-06 12:46 | 37.29710 | 126.03165 | 10377 ft | 313 kts | 101° |
| 2026-05-06 12:46 | 37.29331 | 126.05818 | 10093 ft | 311 kts | 101° |
| 2026-05-06 12:47 | 37.29071 | 126.07623 | 9866 ft | 310 kts | 101° |
| 2026-05-06 12:47 | 37.28737 | 126.09912 | 9584 ft | 309 kts | 101° |
| 2026-05-06 12:47 | 37.28352 | 126.12554 | 9275 ft | 306 kts | 101° |
| 2026-05-06 12:47 | 37.27976 | 126.15180 | 8961 ft | 301 kts | 99° |
| 2026-05-06 12:48 | 37.28050 | 126.17790 | 8493 ft | 302 kts | 74° |
| 2026-05-06 12:48 | 37.29013 | 126.20113 | 8141 ft | 299 kts | 47° |
| 2026-05-06 12:48 | 37.30617 | 126.21645 | 7829 ft | 292 kts | 21° |
| 2026-05-06 12:48 | 37.32559 | 126.22268 | 7483 ft | 287 kts | 5° |
| 2026-05-06 12:49 | 37.34551 | 126.22515 | 7123 ft | 286 kts | 1° |
| 2026-05-06 12:49 | 37.36539 | 126.22473 | 6732 ft | 285 kts | 352° |
| 2026-05-06 12:49 | 37.38508 | 126.22197 | 6402 ft | 283 kts | 350° |
| 2026-05-06 12:49 | 37.40449 | 126.21899 | 5830 ft | 279 kts | 351° |
| 2026-05-06 12:50 | 37.42373 | 126.21617 | 5132 ft | 282 kts | 351° |
| 2026-05-06 12:50 | 37.44328 | 126.21350 | 4489 ft | 283 kts | 351° |
| 2026-05-06 12:50 | 37.46282 | 126.21097 | 3892 ft | 281 kts | 351° |
| 2026-05-06 12:50 | 37.48231 | 126.20855 | 3309 ft | 279 kts | 351° |
| 2026-05-06 12:51 | 37.50166 | 126.20620 | 2744 ft | 277 kts | 351° |
| 2026-05-06 12:51 | 37.52051 | 126.20393 | 2208 ft | 273 kts | 351° |
| 2026-05-06 12:51 | 37.53934 | 126.20169 | 1818 ft | 264 kts | 350° |
| 2026-05-06 12:51 | 37.55716 | 126.20052 | 1603 ft | 251 kts | 4° |
| 2026-05-06 12:52 | 37.57280 | 126.20849 | 1595 ft | 238 kts | 37° |
| 2026-05-06 12:52 | 37.58385 | 126.22287 | 1635 ft | 219 kts | 53° |
| 2026-05-06 12:52 | 37.59274 | 126.23830 | 1601 ft | 214 kts | 55° |
| 2026-05-06 12:52 | 37.60090 | 126.25303 | 1600 ft | 200 kts | 59° |
| 2026-05-06 12:53 | 37.60496 | 126.26929 | 1602 ft | 192 kts | 94° |
| 2026-05-06 12:53 | 37.60161 | 126.28474 | 1594 ft | 177 kts | 134° |
| 2026-05-06 12:53 | 37.59351 | 126.29608 | 1623 ft | 176 kts | 142° |
| 2026-05-06 12:53 | 37.58480 | 126.30639 | 1584 ft | 164 kts | 144° |
| 2026-05-06 12:54 | 37.57673 | 126.31565 | 1584 ft | 148 kts | 147° |
| 2026-05-06 12:54 | 37.56892 | 126.32352 | 1603 ft | 141 kts | 150° |
| 2026-05-06 12:54 | 37.56099 | 126.33088 | 1625 ft | 141 kts | 153° |
| 2026-05-06 12:54 | 37.55306 | 126.33805 | 1595 ft | 142 kts | 153° |
| 2026-05-06 12:55 | 37.54499 | 126.34533 | 1589 ft | 142 kts | 152° |
| 2026-05-06 12:55 | 37.53697 | 126.35251 | 1586 ft | 140 kts | 153° |
| 2026-05-06 12:55 | 37.52899 | 126.35959 | 1481 ft | 143 kts | 152° |
| 2026-05-06 12:55 | 37.52082 | 126.36690 | 1314 ft | 143 kts | 151° |
| 2026-05-06 12:56 | 37.51287 | 126.37406 | 1115 ft | 141 kts | 150° |
| 2026-05-06 12:56 | 37.50486 | 126.38120 | 925 ft | 139 kts | 149° |
| 2026-05-06 12:56 | 37.49701 | 126.38822 | 722 ft | 137 kts | 147° |
| 2026-05-06 12:56 | 37.48925 | 126.39518 | 562 ft | 138 kts | 146° |
| 2026-05-06 12:57 | 37.48155 | 126.40207 | 375 ft | 137 kts | 147° |
| 2026-05-06 12:57 | 37.47373 | 126.40903 | 208 ft | 137 kts | 147° |
| 2026-05-06 12:57 | 37.46595 | 126.41595 | 43 ft | 135 kts | 148° |
| 2026-05-06 12:57 | 37.45912 | 126.42201 | 38 ft | 100 kts | 144° |
| 2026-05-06 12:58 | 37.45474 | 126.42595 | 38 ft | 55 kts | 145° |
| 2026-05-06 12:58 | 37.45277 | 126.42771 | 38 ft | 24 kts | 144° |
| 2026-05-06 12:58 | 37.45155 | 126.42914 | 38 ft | 22 kts | 128° |
| 2026-05-06 12:58 | 37.45100 | 126.43029 | 38 ft | 13 kts | 116° |
| 2026-05-06 12:59 | 37.45064 | 126.43125 | 38 ft | 12 kts | 113° |
| 2026-05-06 12:59 | 37.45065 | 126.43231 | 35 ft | 12 kts | 65° |
| 2026-05-06 12:59 | 37.45116 | 126.43325 | 38 ft | 13 kts | 54° |
| 2026-05-06 12:59 | 37.45172 | 126.43425 | 38 ft | 14 kts | 54° |
| 2026-05-06 13:00 | 37.45229 | 126.43525 | 38 ft | 12 kts | 54° |
| 2026-05-06 13:00 | 37.45285 | 126.43584 | 38 ft | 11 kts | 3° |
| 2026-05-06 13:00 | 37.45353 | 126.43540 | 38 ft | 12 kts | 327° |
| 2026-05-06 13:00 | 37.45423 | 126.43478 | 38 ft | 13 kts | 324° |
| 2026-05-06 13:01 | 37.45499 | 126.43410 | 38 ft | 14 kts | 325° |
| 2026-05-06 13:01 | 37.45582 | 126.43337 | 37 ft | 15 kts | 325° |
| 2026-05-06 13:01 | 37.45669 | 126.43259 | 38 ft | 16 kts | 325° |
| 2026-05-06 13:01 | 37.45727 | 126.43208 | 38 ft | 3 kts | 324° |
| 2026-05-06 13:02 | 37.45748 | 126.43189 | 38 ft | 5 kts | 324° |
| 2026-05-06 13:02 | 37.45790 | 126.43177 | 38 ft | 7 kts | 21° |
| 2026-05-06 13:02 | 37.45832 | 126.43228 | 38 ft | 10 kts | 50° |
| 2026-05-06 13:02 | 37.45877 | 126.43307 | 38 ft | 12 kts | 56° |
| 2026-05-06 13:03 | 37.45909 | 126.43365 | 38 ft | 13 kts | 55° |
| 2026-05-06 13:03 | 37.45980 | 126.43492 | 38 ft | 14 kts | 54° |
| 2026-05-06 13:03 | 37.46018 | 126.43559 | 38 ft | 15 kts | 54° |
| 2026-05-06 13:03 | 37.46080 | 126.43667 | 38 ft | 16 kts | 54° |
| 2026-05-06 13:04 | 37.46162 | 126.43811 | 38 ft | 14 kts | 54° |
| 2026-05-06 13:04 | 37.46221 | 126.43914 | 38 ft | 15 kts | 54° |
| 2026-05-06 13:04 | 37.46263 | 126.43989 | 38 ft | 16 kts | 55° |
| 2026-05-06 13:04 | 37.46326 | 126.44103 | 38 ft | 17 kts | 54° |
| 2026-05-06 13:05 | 37.46394 | 126.44224 | 38 ft | 17 kts | 54° |
| 2026-05-06 13:05 | 37.46466 | 126.44352 | 38 ft | 18 kts | 54° |
| 2026-05-06 13:05 | 37.46520 | 126.44447 | 37 ft | 11 kts | 53° |
| 2026-05-06 13:05 | 37.46580 | 126.44450 | 37 ft | 10 kts | 330° |
| 2026-05-06 13:06 | 37.46642 | 126.44398 | 38 ft | 11 kts | 324° |
| 2026-05-06 13:06 | 37.46710 | 126.44337 | 38 ft | 12 kts | 324° |
| 2026-05-06 13:06 | 37.46784 | 126.44271 | 38 ft | 14 kts | 323° |
| 2026-05-06 13:06 | 37.46855 | 126.44187 | 38 ft | 14 kts | 313° |
| 2026-05-06 13:07 | 37.46924 | 126.44095 | 38 ft | 14 kts | 314° |
| 2026-05-06 13:07 | 37.46994 | 126.44003 | 38 ft | 14 kts | 314° |
| 2026-05-06 13:07 | 37.47064 | 126.43918 | 38 ft | 13 kts | 321° |
| 2026-05-06 13:07 | 37.47126 | 126.43863 | 38 ft | 9 kts | 327° |
| 2026-05-06 13:08 | 37.47146 | 126.43843 | 29 ft | 6 kts | 312° |
| 2026-05-06 13:08 | 37.47142 | 126.43789 | 38 ft | 6 kts | 244° |
| 2026-05-06 13:08 | 37.47126 | 126.43754 | 38 ft | 4 kts | 239° |
| 2026-05-06 13:08 | 37.47117 | 126.43734 | 38 ft | 0 kts | 236° |